Etusivu
METAR-TAF:

METAR-TAF

Lentoasemat :

Hillsdale Municipal Airport

Hillsdale, Michigan, Yhdysvallat

Leveyspiiri: 41-55-17N, Pituuspiiri: 084-35-09W, korkeus merenpinnasta: 360 m

Tämänhetkinen sää

Tämä raportti tehtiin 16 minuuttia sitten, kello 15.56 UTC
Tuuli 8 kn lännestä
Lämpötila 8°C
Kosteus 57%
Ilmanpaine 1018 hPa
Näkyvyys: 11.3 km
Hajonneita pilviä 3500 ft:n korkeudessa
Hajonneita pilviä 4100 ft:n korkeudessa
Pilvistä 4800 ft:n korkeudessa

METAR: KJYM 141556Z AUTO 26008KT 7SM BKN035 BKN041 OVC048 08/00 A3005 RMK AO2 T00781003

Aika: 12:12 (16:12 UTC)


TAF: puuttuu

Säähavainnot ja -ennusteet yli 4000 lentoasemalta (METAR- ja TAF-raportit).

Käytössä olevat sääasemat on merkitty karttaan keltaisilla ja punaisilla pisteillä.

Aseta hiiri pisteen päälle nähdäksesi sääaseman nimen.

Klikkaa sitten nähdäksesi säähavainnot ja -ennusteet.

Kartan vaihtaminen: klikkaa mustalla rastilla varustettuja vihreitä pisteitä, niin voit zoomata sisään; viivalla varustettua vihreää pistettä, niin voit zoomata ulos tai vihreitä nuolia, niin pääset viereisille kartoille.


METAR-TAF: